Tropical Cyclones
[Index]
Main Index Home Page Stock Weather Photos Extreme Storms Discussion Storm News and Storm Chasing Reports Tropical Cyclones / Hurricanes / Typhoons Weather Data and Links Wild Fires / Bushfires Weather Observation Techniques Weather Picture Catalogue Tornado Pictures and Reports Stock Video Footage and DVDs for sale
Season 1971-1972 Tropical Cyclone BELINDA Track Map
Season 1971-1972 Summaries: [BoM-AU] [JTWC-AU] [JTWC-SIO] [JTWC-SPAC] [JTWC-SH]
<<- Previous TC | BoM 1971-1972 Season | Next TC ->>

click for intensity scale information  Lat/long Grid: Show Hide

 Date Labels: Show Hide

Bureau of Meteorology Tropical Cyclone Data

Name: BELINDA
Number: 492 / 197172_13

20 Mar 1972 00:00 UTC to 29 Mar 1972 06:00 UTC

    date/time    lat    long    hPa   cat  kts
1972-03-20 00   10.0   105.0   1006                     
1972-03-20 03   10.3   104.7   1004                     
1972-03-20 06   10.6   104.4   1002                     
1972-03-20 09   10.9   104.1   1001                     
1972-03-20 12   11.2   103.8   1000                     
1972-03-20 15   11.4   103.5    999                     
1972-03-20 18   11.6   103.3    998                     
1972-03-20 21   11.7   103.1    997                     
1972-03-21 00   11.8   102.9    996                     
1972-03-21 03   12.2   102.7    996                     
1972-03-21 06   12.6   102.6    996                     
1972-03-21 09   13.0   102.5    996                     
1972-03-21 12   13.4   102.4    995    1                
1972-03-21 15   13.7   102.3    995    1                
1972-03-21 18   13.8   102.2    995    1                
1972-03-21 21   13.9   102.1    994    1                
1972-03-22 00   14.0   102.0    994    1                
1972-03-22 03   14.1   101.5    992    1                
1972-03-22 06   14.2   101.0    990    1                
1972-03-22 09   14.3   100.5    988    1                
1972-03-22 12   14.4   100.0    986    1                
1972-03-22 15   14.5    99.5    984    2                
1972-03-22 18   14.6    99.0    982    2                
1972-03-22 21   14.8    98.8    981    2                
1972-03-23 00   15.0    98.5    980    2                
1972-03-23 03   15.3    98.2    981    2                
1972-03-23 06   15.6    97.9    982    2                
1972-03-23 09   15.8    97.7    983    2                
1972-03-23 12   16.0    97.4    984    2                
1972-03-23 15   16.2    97.1    985    2                
1972-03-23 18   16.4    96.8    987    1                
1972-03-23 21   16.6    96.5    989    1                
1972-03-24 00   16.8    96.1    990    1                
1972-03-24 03   17.0    95.7    991    1                
1972-03-24 06   17.3    95.2    992    1                
1972-03-24 09   17.6    94.7    993    1                
1972-03-24 12   17.9    94.2    993    1                
1972-03-24 15   18.2    93.7    994    1                
1972-03-24 18   18.5    93.2    994    1                
1972-03-24 21   18.8    92.8    994    1                
1972-03-25 00   19.0    92.5    995    1                
1972-03-25 03   19.1    92.2    995    1                
1972-03-25 06   19.2    91.9    995    1                
1972-03-25 09   19.3    91.6    996                     
1972-03-25 12   19.4    91.3    996                     
1972-03-26 00   19.8    90.5    998                     
1972-03-26 03   19.9    90.5    998                     
1972-03-26 06   20.1    90.5    999                     
1972-03-26 09   20.3    90.5    999                     
1972-03-26 12   20.5    90.6    999                     
1972-03-26 15   20.7    90.7   1000                     
1972-03-26 18   20.8    90.8   1000                     
1972-03-26 21   20.9    90.9   1000                     
1972-03-27 00   21.0    91.0   1000                     
1972-03-27 12   21.4    91.0   1002                     
1972-03-27 15   21.5    91.0   1003                     
1972-03-27 18   21.6    91.0   1003                     
1972-03-27 21   21.7    91.0   1004                     
1972-03-28 00   21.8    91.0   1004                     
1972-03-28 18   22.7    90.2   1005                     
1972-03-28 21   22.9    90.1   1005                     
1972-03-29 00   23.0    90.0   1006                     
1972-03-29 03   23.2    89.9   1006                     
1972-03-29 06   23.3    89.8   1007                     
Winds are 10-min average.

Tropical cyclone tracks developed by Michael Bath using data from the Bureau of Meteorology and Google Maps.


[Australian Severe Weather index] [Copyright Notice] [Email Contacts] [Search This Site] [Privacy Policy]
Document: tropical_cyclone_belinda.htm Updated: 30 May 2013